sensor_id;sensor_type;location;lat;lon;timestamp;temperature;humidity
71563;DHT22;59391;52.504;13.438;2023-10-13T00:00:47;16.00;75.00
71563;DHT22;59391;52.504;13.438;2023-10-13T00:03:13;16.00;74.90
71563;DHT22;59391;52.504;13.438;2023-10-13T00:05:42;16.10;74.60
71563;DHT22;59391;52.504;13.438;2023-10-13T00:08:09;16.00;74.40
71563;DHT22;59391;52.504;13.438;2023-10-13T00:10:35;16.00;74.30
71563;DHT22;59391;52.504;13.438;2023-10-13T00:13:02;16.00;74.40
71563;DHT22;59391;52.504;13.438;2023-10-13T00:15:38;16.00;74.40
71563;DHT22;59391;52.504;13.438;2023-10-13T00:18:11;16.00;74.40
71563;DHT22;59391;52.504;13.438;2023-10-13T00:20:43;16.00;74.60
71563;DHT22;59391;52.504;13.438;2023-10-13T00:23:15;16.00;74.60
71563;DHT22;59391;52.504;13.438;2023-10-13T00:25:49;16.00;74.70
71563;DHT22;59391;52.504;13.438;2023-10-13T00:28:16;16.00;74.70
71563;DHT22;59391;52.504;13.438;2023-10-13T00:30:52;16.00;74.70
71563;DHT22;59391;52.504;13.438;2023-10-13T00:33:40;16.00;74.70
71563;DHT22;59391;52.504;13.438;2023-10-13T00:36:07;16.00;74.80
71563;DHT22;59391;52.504;13.438;2023-10-13T00:38:35;16.10;74.70
71563;DHT22;59391;52.504;13.438;2023-10-13T00:41:02;16.10;74.50
71563;DHT22;59391;52.504;13.438;2023-10-13T00:43:47;16.10;74.60
71563;DHT22;59391;52.504;13.438;2023-10-13T00:46:31;16.10;74.40
71563;DHT22;59391;52.504;13.438;2023-10-13T00:48:59;16.10;74.20
71563;DHT22;59391;52.504;13.438;2023-10-13T00:51:26;16.10;74.20
71563;DHT22;59391;52.504;13.438;2023-10-13T00:54:02;16.00;74.40
71563;DHT22;59391;52.504;13.438;2023-10-13T00:56:33;16.00;74.60
71563;DHT22;59391;52.504;13.438;2023-10-13T00:58:59;16.00;74.80
71563;DHT22;59391;52.504;13.438;2023-10-13T01:01:28;16.00;74.80
71563;DHT22;59391;52.504;13.438;2023-10-13T01:03:56;16.00;74.80
71563;DHT22;59391;52.504;13.438;2023-10-13T01:06:25;16.00;74.80
71563;DHT22;59391;52.504;13.438;2023-10-13T01:11:48;16.00;75.00
71563;DHT22;59391;52.504;13.438;2023-10-13T01:14:18;16.00;74.90
71563;DHT22;59391;52.504;13.438;2023-10-13T01:16:46;16.00;75.00
71563;DHT22;59391;52.504;13.438;2023-10-13T01:19:14;16.00;75.00
71563;DHT22;59391;52.504;13.438;2023-10-13T01:21:47;16.00;75.10
71563;DHT22;59391;52.504;13.438;2023-10-13T01:24:13;16.00;75.00
71563;DHT22;59391;52.504;13.438;2023-10-13T01:26:43;16.00;75.10
71563;DHT22;59391;52.504;13.438;2023-10-13T01:29:09;16.00;75.10
71563;DHT22;59391;52.504;13.438;2023-10-13T01:31:39;16.00;75.30
71563;DHT22;59391;52.504;13.438;2023-10-13T01:34:15;16.00;75.30
71563;DHT22;59391;52.504;13.438;2023-10-13T01:36:55;16.00;75.50
71563;DHT22;59391;52.504;13.438;2023-10-13T01:39:23;16.00;75.60
71563;DHT22;59391;52.504;13.438;2023-10-13T01:41:54;16.00;75.50
71563;DHT22;59391;52.504;13.438;2023-10-13T01:44:21;16.00;75.50
71563;DHT22;59391;52.504;13.438;2023-10-13T01:46:53;16.00;75.50
71563;DHT22;59391;52.504;13.438;2023-10-13T01:49:19;16.10;75.60
71563;DHT22;59391;52.504;13.438;2023-10-13T01:51:47;16.00;75.60
71563;DHT22;59391;52.504;13.438;2023-10-13T01:54:13;16.10;75.50
71563;DHT22;59391;52.504;13.438;2023-10-13T01:56:41;16.10;75.60
71563;DHT22;59391;52.504;13.438;2023-10-13T01:59:12;16.00;75.50
71563;DHT22;59391;52.504;13.438;2023-10-13T02:01:38;16.10;75.50
71563;DHT22;59391;52.504;13.438;2023-10-13T02:04:05;16.10;75.40
71563;DHT22;59391;52.504;13.438;2023-10-13T02:06:33;16.00;75.40
71563;DHT22;59391;52.504;13.438;2023-10-13T02:09:05;16.00;75.40
71563;DHT22;59391;52.504;13.438;2023-10-13T02:11:43;16.00;75.40
71563;DHT22;59391;52.504;13.438;2023-10-13T02:14:12;16.00;75.50
71563;DHT22;59391;52.504;13.438;2023-10-13T02:16:41;16.00;75.50
71563;DHT22;59391;52.504;13.438;2023-10-13T02:19:08;16.00;75.60
71563;DHT22;59391;52.504;13.438;2023-10-13T02:21:35;16.00;75.80
71563;DHT22;59391;52.504;13.438;2023-10-13T02:24:11;16.00;75.90
71563;DHT22;59391;52.504;13.438;2023-10-13T02:26:44;16.00;76.00
71563;DHT22;59391;52.504;13.438;2023-10-13T02:29:10;16.00;76.10
71563;DHT22;59391;52.504;13.438;2023-10-13T02:31:40;16.00;76.10
71563;DHT22;59391;52.504;13.438;2023-10-13T02:34:07;16.00;76.20
71563;DHT22;59391;52.504;13.438;2023-10-13T02:36:38;16.00;76.20
71563;DHT22;59391;52.504;13.438;2023-10-13T02:39:17;16.00;76.20
71563;DHT22;59391;52.504;13.438;2023-10-13T02:41:49;16.00;76.20
71563;DHT22;59391;52.504;13.438;2023-10-13T02:44:15;16.00;76.30
71563;DHT22;59391;52.504;13.438;2023-10-13T02:46:56;15.90;76.40
71563;DHT22;59391;52.504;13.438;2023-10-13T02:49:24;15.90;76.50
71563;DHT22;59391;52.504;13.438;2023-10-13T02:51:54;15.90;76.60
71563;DHT22;59391;52.504;13.438;2023-10-13T02:54:32;15.90;76.70
71563;DHT22;59391;52.504;13.438;2023-10-13T02:57:04;15.90;76.80
71563;DHT22;59391;52.504;13.438;2023-10-13T02:59:32;15.90;76.80
71563;DHT22;59391;52.504;13.438;2023-10-13T03:02:05;16.00;76.90
71563;DHT22;59391;52.504;13.438;2023-10-13T03:04:52;15.90;76.90
71563;DHT22;59391;52.504;13.438;2023-10-13T03:07:26;16.00;77.00
71563;DHT22;59391;52.504;13.438;2023-10-13T03:09:56;16.00;77.00
71563;DHT22;59391;52.504;13.438;2023-10-13T03:12:26;16.00;77.00
71563;DHT22;59391;52.504;13.438;2023-10-13T03:14:57;16.00;77.10
71563;DHT22;59391;52.504;13.438;2023-10-13T03:17:38;16.00;77.10
71563;DHT22;59391;52.504;13.438;2023-10-13T03:20:18;16.00;77.20
71563;DHT22;59391;52.504;13.438;2023-10-13T03:22:52;16.00;77.20
71563;DHT22;59391;52.504;13.438;2023-10-13T03:25:18;16.00;77.30
71563;DHT22;59391;52.504;13.438;2023-10-13T03:28:07;16.00;77.40
71563;DHT22;59391;52.504;13.438;2023-10-13T03:30:37;16.00;77.50
71563;DHT22;59391;52.504;13.438;2023-10-13T03:33:07;16.00;77.50
71563;DHT22;59391;52.504;13.438;2023-10-13T03:35:37;16.10;77.40
71563;DHT22;59391;52.504;13.438;2023-10-13T03:38:04;16.10;77.40
71563;DHT22;59391;52.504;13.438;2023-10-13T03:40:39;16.10;77.50
71563;DHT22;59391;52.504;13.438;2023-10-13T03:43:05;16.10;77.50
71563;DHT22;59391;52.504;13.438;2023-10-13T03:45:44;16.10;77.60
71563;DHT22;59391;52.504;13.438;2023-10-13T03:48:14;16.10;77.60
71563;DHT22;59391;52.504;13.438;2023-10-13T03:50:55;16.20;77.40
71563;DHT22;59391;52.504;13.438;2023-10-13T03:53:29;16.20;77.30
71563;DHT22;59391;52.504;13.438;2023-10-13T03:56:00;16.20;77.20
71563;DHT22;59391;52.504;13.438;2023-10-13T03:58:41;16.20;77.20
71563;DHT22;59391;52.504;13.438;2023-10-13T04:01:12;16.20;77.20
71563;DHT22;59391;52.504;13.438;2023-10-13T04:03:41;16.20;77.30
71563;DHT22;59391;52.504;13.438;2023-10-13T04:06:25;16.20;77.30
71563;DHT22;59391;52.504;13.438;2023-10-13T04:09:16;16.20;77.40
71563;DHT22;59391;52.504;13.438;2023-10-13T04:12:01;16.20;77.50
71563;DHT22;59391;52.504;13.438;2023-10-13T04:14:31;16.20;77.60
71563;DHT22;59391;52.504;13.438;2023-10-13T04:17:07;16.20;77.70
71563;DHT22;59391;52.504;13.438;2023-10-13T04:19:42;16.20;77.80
71563;DHT22;59391;52.504;13.438;2023-10-13T04:22:27;16.20;78.00
71563;DHT22;59391;52.504;13.438;2023-10-13T04:25:23;16.20;78.00
71563;DHT22;59391;52.504;13.438;2023-10-13T04:28:18;16.20;78.10
71563;DHT22;59391;52.504;13.438;2023-10-13T04:31:00;16.20;78.20
71563;DHT22;59391;52.504;13.438;2023-10-13T04:33:37;16.20;78.30
71563;DHT22;59391;52.504;13.438;2023-10-13T04:36:17;16.20;78.40
71563;DHT22;59391;52.504;13.438;2023-10-13T04:38:54;16.20;78.40
71563;DHT22;59391;52.504;13.438;2023-10-13T04:41:34;16.20;78.50
71563;DHT22;59391;52.504;13.438;2023-10-13T04:44:06;16.30;78.50
71563;DHT22;59391;52.504;13.438;2023-10-13T04:46:52;16.20;78.60
71563;DHT22;59391;52.504;13.438;2023-10-13T04:49:22;16.30;78.60
71563;DHT22;59391;52.504;13.438;2023-10-13T04:52:00;16.30;78.60
71563;DHT22;59391;52.504;13.438;2023-10-13T04:54:34;16.30;78.60
71563;DHT22;59391;52.504;13.438;2023-10-13T04:57:24;16.30;78.70
71563;DHT22;59391;52.504;13.438;2023-10-13T05:00:00;16.40;78.80
71563;DHT22;59391;52.504;13.438;2023-10-13T05:02:33;16.40;78.60
71563;DHT22;59391;52.504;13.438;2023-10-13T05:05:09;16.40;78.60
71563;DHT22;59391;52.504;13.438;2023-10-13T05:07:52;16.40;78.60
71563;DHT22;59391;52.504;13.438;2023-10-13T05:10:37;16.40;78.60
71563;DHT22;59391;52.504;13.438;2023-10-13T05:13:21;16.50;78.60
71563;DHT22;59391;52.504;13.438;2023-10-13T05:16:06;16.50;78.50
71563;DHT22;59391;52.504;13.438;2023-10-13T05:18:50;16.50;78.40
71563;DHT22;59391;52.504;13.438;2023-10-13T05:21:34;16.50;78.40
71563;DHT22;59391;52.504;13.438;2023-10-13T05:24:18;16.60;78.40
71563;DHT22;59391;52.504;13.438;2023-10-13T05:27:03;16.60;78.30
71563;DHT22;59391;52.504;13.438;2023-10-13T05:29:48;16.60;78.30
71563;DHT22;59391;52.504;13.438;2023-10-13T05:32:33;16.60;78.30
71563;DHT22;59391;52.504;13.438;2023-10-13T05:35:20;16.60;78.20
71563;DHT22;59391;52.504;13.438;2023-10-13T05:38:04;16.70;78.30
71563;DHT22;59391;52.504;13.438;2023-10-13T05:41:00;16.70;78.30
71563;DHT22;59391;52.504;13.438;2023-10-13T05:43:47;16.70;78.50
71563;DHT22;59391;52.504;13.438;2023-10-13T05:46:32;16.70;78.30
71563;DHT22;59391;52.504;13.438;2023-10-13T05:49:05;16.70;78.30
71563;DHT22;59391;52.504;13.438;2023-10-13T05:51:32;16.70;78.20
71563;DHT22;59391;52.504;13.438;2023-10-13T05:54:02;16.70;78.30
71563;DHT22;59391;52.504;13.438;2023-10-13T05:56:49;16.80;78.30
71563;DHT22;59391;52.504;13.438;2023-10-13T05:59:36;16.80;78.20
71563;DHT22;59391;52.504;13.438;2023-10-13T06:02:23;16.80;78.10
71563;DHT22;59391;52.504;13.438;2023-10-13T06:05:09;16.80;78.10
71563;DHT22;59391;52.504;13.438;2023-10-13T06:07:55;16.90;78.10
71563;DHT22;59391;52.504;13.438;2023-10-13T06:10:42;16.90;78.10
71563;DHT22;59391;52.504;13.438;2023-10-13T06:13:27;16.90;78.10
71563;DHT22;59391;52.504;13.438;2023-10-13T06:16:13;16.90;78.10
71563;DHT22;59391;52.504;13.438;2023-10-13T06:18:59;17.00;78.10
71563;DHT22;59391;52.504;13.438;2023-10-13T06:21:44;17.00;78.10
71563;DHT22;59391;52.504;13.438;2023-10-13T06:24:30;17.00;78.20
71563;DHT22;59391;52.504;13.438;2023-10-13T06:27:15;17.00;78.10
71563;DHT22;59391;52.504;13.438;2023-10-13T06:30:01;17.10;78.10
71563;DHT22;59391;52.504;13.438;2023-10-13T06:32:28;17.10;78.10
71563;DHT22;59391;52.504;13.438;2023-10-13T06:34:57;17.20;78.10
71563;DHT22;59391;52.504;13.438;2023-10-13T06:37:26;17.20;77.90
71563;DHT22;59391;52.504;13.438;2023-10-13T06:39:59;17.20;77.80
71563;DHT22;59391;52.504;13.438;2023-10-13T06:42:32;17.30;77.80
71563;DHT22;59391;52.504;13.438;2023-10-13T06:45:00;17.30;77.70
71563;DHT22;59391;52.504;13.438;2023-10-13T06:47:37;17.30;77.70
71563;DHT22;59391;52.504;13.438;2023-10-13T06:50:09;17.40;77.60
71563;DHT22;59391;52.504;13.438;2023-10-13T06:52:43;17.40;77.60
71563;DHT22;59391;52.504;13.438;2023-10-13T06:55:15;17.40;77.60
71563;DHT22;59391;52.504;13.438;2023-10-13T06:58:04;17.50;77.50
71563;DHT22;59391;52.504;13.438;2023-10-13T07:00:32;17.50;77.70
71563;DHT22;59391;52.504;13.438;2023-10-13T07:03:04;17.50;77.60
71563;DHT22;59391;52.504;13.438;2023-10-13T07:05:43;17.60;77.80
71563;DHT22;59391;52.504;13.438;2023-10-13T07:08:10;17.60;77.70
71563;DHT22;59391;52.504;13.438;2023-10-13T07:10:55;17.70;77.60
71563;DHT22;59391;52.504;13.438;2023-10-13T07:13:31;17.70;77.60
71563;DHT22;59391;52.504;13.438;2023-10-13T07:16:02;17.80;77.50
71563;DHT22;59391;52.504;13.438;2023-10-13T07:18:34;17.90;77.00
71563;DHT22;59391;52.504;13.438;2023-10-13T07:21:09;18.00;76.90
71563;DHT22;59391;52.504;13.438;2023-10-13T07:23:36;18.10;76.60
71563;DHT22;59391;52.504;13.438;2023-10-13T07:26:04;18.10;76.40
71563;DHT22;59391;52.504;13.438;2023-10-13T07:28:32;18.20;76.00
71563;DHT22;59391;52.504;13.438;2023-10-13T07:31:04;18.20;76.00
71563;DHT22;59391;52.504;13.438;2023-10-13T07:33:30;18.30;75.40
71563;DHT22;59391;52.504;13.438;2023-10-13T07:36:04;18.40;75.30
71563;DHT22;59391;52.504;13.438;2023-10-13T07:38:42;18.40;75.00
71563;DHT22;59391;52.504;13.438;2023-10-13T07:41:09;18.50;75.00
71563;DHT22;59391;52.504;13.438;2023-10-13T07:43:38;18.50;74.90
71563;DHT22;59391;52.504;13.438;2023-10-13T07:46:04;18.60;74.60
71563;DHT22;59391;52.504;13.438;2023-10-13T07:48:36;18.60;74.40
71563;DHT22;59391;52.504;13.438;2023-10-13T07:51:08;18.70;74.10
71563;DHT22;59391;52.504;13.438;2023-10-13T07:53:39;18.70;73.90
71563;DHT22;59391;52.504;13.438;2023-10-13T07:56:09;18.70;73.80
71563;DHT22;59391;52.504;13.438;2023-10-13T07:58:38;18.70;73.60
71563;DHT22;59391;52.504;13.438;2023-10-13T08:01:13;18.80;73.40
71563;DHT22;59391;52.504;13.438;2023-10-13T08:03:45;18.80;73.40
71563;DHT22;59391;52.504;13.438;2023-10-13T08:06:16;18.80;73.40
71563;DHT22;59391;52.504;13.438;2023-10-13T08:08:42;18.90;73.60
71563;DHT22;59391;52.504;13.438;2023-10-13T08:11:16;18.90;73.50
71563;DHT22;59391;52.504;13.438;2023-10-13T08:13:58;18.90;73.40
71563;DHT22;59391;52.504;13.438;2023-10-13T08:16:34;18.90;73.20
71563;DHT22;59391;52.504;13.438;2023-10-13T08:19:25;19.00;73.40
71563;DHT22;59391;52.504;13.438;2023-10-13T08:22:11;19.00;73.40
71563;DHT22;59391;52.504;13.438;2023-10-13T08:24:46;19.10;72.90
71563;DHT22;59391;52.504;13.438;2023-10-13T08:27:14;19.10;72.60
71563;DHT22;59391;52.504;13.438;2023-10-13T08:29:59;19.10;72.80
71563;DHT22;59391;52.504;13.438;2023-10-13T08:32:28;19.10;72.80
71563;DHT22;59391;52.504;13.438;2023-10-13T08:35:01;19.20;72.90
71563;DHT22;59391;52.504;13.438;2023-10-13T08:37:31;19.20;72.90
71563;DHT22;59391;52.504;13.438;2023-10-13T08:40:16;19.30;72.50
71563;DHT22;59391;52.504;13.438;2023-10-13T08:42:51;19.30;72.40
71563;DHT22;59391;52.504;13.438;2023-10-13T08:45:30;19.30;72.30
71563;DHT22;59391;52.504;13.438;2023-10-13T08:48:01;19.40;72.20
71563;DHT22;59391;52.504;13.438;2023-10-13T08:50:47;19.40;72.20
71563;DHT22;59391;52.504;13.438;2023-10-13T08:53:23;19.50;72.00
71563;DHT22;59391;52.504;13.438;2023-10-13T08:55:59;19.50;71.90
71563;DHT22;59391;52.504;13.438;2023-10-13T08:58:47;19.60;71.80
71563;DHT22;59391;52.504;13.438;2023-10-13T09:01:27;19.60;71.60
71563;DHT22;59391;52.504;13.438;2023-10-13T09:04:00;19.60;71.70
71563;DHT22;59391;52.504;13.438;2023-10-13T09:06:48;19.70;71.00
71563;DHT22;59391;52.504;13.438;2023-10-13T09:09:48;19.70;71.30
71563;DHT22;59391;52.504;13.438;2023-10-13T09:12:24;19.70;70.90
71563;DHT22;59391;52.504;13.438;2023-10-13T09:15:05;19.80;70.90
71563;DHT22;59391;52.504;13.438;2023-10-13T09:17:50;19.80;71.10
71563;DHT22;59391;52.504;13.438;2023-10-13T09:20:17;19.90;71.20
71563;DHT22;59391;52.504;13.438;2023-10-13T09:22:50;19.90;70.90
71563;DHT22;59391;52.504;13.438;2023-10-13T09:25:34;19.90;70.90
71563;DHT22;59391;52.504;13.438;2023-10-13T09:28:03;20.00;70.70
71563;DHT22;59391;52.504;13.438;2023-10-13T09:30:47;20.00;70.60
71563;DHT22;59391;52.504;13.438;2023-10-13T09:33:25;20.00;70.80
71563;DHT22;59391;52.504;13.438;2023-10-13T09:35:59;20.10;70.90
71563;DHT22;59391;52.504;13.438;2023-10-13T09:38:28;20.10;70.80
71563;DHT22;59391;52.504;13.438;2023-10-13T09:40:54;20.10;71.30
71563;DHT22;59391;52.504;13.438;2023-10-13T09:43:23;20.00;71.30
71563;DHT22;59391;52.504;13.438;2023-10-13T09:45:58;20.00;71.50
71563;DHT22;59391;52.504;13.438;2023-10-13T09:48:34;20.00;71.40
71563;DHT22;59391;52.504;13.438;2023-10-13T09:51:06;20.00;71.60
71563;DHT22;59391;52.504;13.438;2023-10-13T09:53:40;20.00;71.70
71563;DHT22;59391;52.504;13.438;2023-10-13T09:56:20;19.90;72.00
71563;DHT22;59391;52.504;13.438;2023-10-13T09:59:14;20.00;71.90
71563;DHT22;59391;52.504;13.438;2023-10-13T10:01:44;20.00;72.30
71563;DHT22;59391;52.504;13.438;2023-10-13T10:04:18;20.00;72.40
71563;DHT22;59391;52.504;13.438;2023-10-13T10:06:58;20.00;72.60
71563;DHT22;59391;52.504;13.438;2023-10-13T10:09:31;20.00;72.50
71563;DHT22;59391;52.504;13.438;2023-10-13T10:15:32;20.00;72.60
71563;DHT22;59391;52.504;13.438;2023-10-13T10:18:02;20.00;72.70
71563;DHT22;59391;52.504;13.438;2023-10-13T10:20:32;20.00;72.40
71563;DHT22;59391;52.504;13.438;2023-10-13T10:23:08;20.00;72.50
71563;DHT22;59391;52.504;13.438;2023-10-13T10:25:38;20.10;72.40
71563;DHT22;59391;52.504;13.438;2023-10-13T10:28:09;20.10;72.50
71563;DHT22;59391;52.504;13.438;2023-10-13T10:30:41;20.10;72.60
71563;DHT22;59391;52.504;13.438;2023-10-13T10:33:08;20.20;72.50
71563;DHT22;59391;52.504;13.438;2023-10-13T10:35:48;20.20;72.70
71563;DHT22;59391;52.504;13.438;2023-10-13T10:38:24;20.20;72.70
71563;DHT22;59391;52.504;13.438;2023-10-13T10:40:59;20.20;72.70
71563;DHT22;59391;52.504;13.438;2023-10-13T10:46:15;20.30;72.90
71563;DHT22;59391;52.504;13.438;2023-10-13T10:48:42;20.30;73.20
71563;DHT22;59391;52.504;13.438;2023-10-13T10:51:13;20.30;73.70
71563;DHT22;59391;52.504;13.438;2023-10-13T10:53:40;20.30;74.00
71563;DHT22;59391;52.504;13.438;2023-10-13T10:56:11;20.20;74.50
71563;DHT22;59391;52.504;13.438;2023-10-13T10:58:58;20.20;75.00
71563;DHT22;59391;52.504;13.438;2023-10-13T11:01:28;20.10;75.30
71563;DHT22;59391;52.504;13.438;2023-10-13T11:04:06;20.10;75.90
71563;DHT22;59391;52.504;13.438;2023-10-13T11:06:56;20.10;76.40
71563;DHT22;59391;52.504;13.438;2023-10-13T11:09:28;20.00;76.50
71563;DHT22;59391;52.504;13.438;2023-10-13T11:15:00;20.00;77.20
71563;DHT22;59391;52.504;13.438;2023-10-13T11:17:41;20.00;77.50
71563;DHT22;59391;52.504;13.438;2023-10-13T11:20:24;20.00;77.40
71563;DHT22;59391;52.504;13.438;2023-10-13T11:22:58;20.00;77.70
71563;DHT22;59391;52.504;13.438;2023-10-13T11:25:27;20.00;77.70
71563;DHT22;59391;52.504;13.438;2023-10-13T11:27:58;20.00;78.10
71563;DHT22;59391;52.504;13.438;2023-10-13T11:30:26;20.10;77.80
71563;DHT22;59391;52.504;13.438;2023-10-13T11:33:08;20.10;78.20
71563;DHT22;59391;52.504;13.438;2023-10-13T11:35:39;20.10;77.70
71563;DHT22;59391;52.504;13.438;2023-10-13T11:38:24;20.20;77.60
71563;DHT22;59391;52.504;13.438;2023-10-13T11:41:08;20.20;77.30
71563;DHT22;59391;52.504;13.438;2023-10-13T11:43:51;20.20;77.00
71563;DHT22;59391;52.504;13.438;2023-10-13T11:46:18;20.30;77.00
71563;DHT22;59391;52.504;13.438;2023-10-13T11:49:00;20.30;76.60
71563;DHT22;59391;52.504;13.438;2023-10-13T11:51:45;20.30;76.60
71563;DHT22;59391;52.504;13.438;2023-10-13T11:54:20;20.40;76.00
71563;DHT22;59391;52.504;13.438;2023-10-13T11:56:51;20.40;75.80
71563;DHT22;59391;52.504;13.438;2023-10-13T11:59:17;20.50;75.30
71563;DHT22;59391;52.504;13.438;2023-10-13T12:01:49;20.50;75.30
71563;DHT22;59391;52.504;13.438;2023-10-13T12:04:35;20.60;75.00
71563;DHT22;59391;52.504;13.438;2023-10-13T12:07:39;20.60;74.70
71563;DHT22;59391;52.504;13.438;2023-10-13T12:10:13;20.70;74.20
71563;DHT22;59391;52.504;13.438;2023-10-13T12:12:57;20.70;73.80
71563;DHT22;59391;52.504;13.438;2023-10-13T12:15:31;20.80;73.90
71563;DHT22;59391;52.504;13.438;2023-10-13T12:18:12;20.90;73.90
71563;DHT22;59391;52.504;13.438;2023-10-13T12:20:40;20.90;73.50
71563;DHT22;59391;52.504;13.438;2023-10-13T12:23:11;21.00;73.30
71563;DHT22;59391;52.504;13.438;2023-10-13T12:25:43;21.10;72.70
71563;DHT22;59391;52.504;13.438;2023-10-13T12:28:24;21.10;72.60
71563;DHT22;59391;52.504;13.438;2023-10-13T12:30:53;21.20;72.20
71563;DHT22;59391;52.504;13.438;2023-10-13T12:33:23;21.20;72.10
71563;DHT22;59391;52.504;13.438;2023-10-13T12:36:00;21.30;71.60
71563;DHT22;59391;52.504;13.438;2023-10-13T12:38:35;21.30;71.60
71563;DHT22;59391;52.504;13.438;2023-10-13T12:41:11;21.40;71.30
71563;DHT22;59391;52.504;13.438;2023-10-13T12:43:55;21.50;71.40
71563;DHT22;59391;52.504;13.438;2023-10-13T12:46:46;21.50;71.20
71563;DHT22;59391;52.504;13.438;2023-10-13T12:49:33;21.60;70.90
71563;DHT22;59391;52.504;13.438;2023-10-13T12:52:11;21.60;70.60
71563;DHT22;59391;52.504;13.438;2023-10-13T12:54:56;21.70;70.20
71563;DHT22;59391;52.504;13.438;2023-10-13T12:57:26;21.70;69.70
71563;DHT22;59391;52.504;13.438;2023-10-13T12:59:53;21.80;69.60
71563;DHT22;59391;52.504;13.438;2023-10-13T13:02:26;21.90;69.60
71563;DHT22;59391;52.504;13.438;2023-10-13T13:04:53;21.90;69.60
71563;DHT22;59391;52.504;13.438;2023-10-13T13:07:23;22.00;69.20
71563;DHT22;59391;52.504;13.438;2023-10-13T13:09:54;22.00;68.90
71563;DHT22;59391;52.504;13.438;2023-10-13T13:12:24;22.10;69.10
71563;DHT22;59391;52.504;13.438;2023-10-13T13:14:50;22.10;68.60
71563;DHT22;59391;52.504;13.438;2023-10-13T13:17:20;22.20;68.00
71563;DHT22;59391;52.504;13.438;2023-10-13T13:19:46;22.30;68.10
71563;DHT22;59391;52.504;13.438;2023-10-13T13:22:12;22.30;67.40
71563;DHT22;59391;52.504;13.438;2023-10-13T13:24:42;22.40;67.20
71563;DHT22;59391;52.504;13.438;2023-10-13T13:27:13;22.40;67.20
71563;DHT22;59391;52.504;13.438;2023-10-13T13:29:41;22.50;67.00
71563;DHT22;59391;52.504;13.438;2023-10-13T13:32:07;22.60;66.80
71563;DHT22;59391;52.504;13.438;2023-10-13T13:34:44;22.60;66.60
71563;DHT22;59391;52.504;13.438;2023-10-13T13:37:18;22.70;66.10
71563;DHT22;59391;52.504;13.438;2023-10-13T13:39:45;22.80;65.50
71563;DHT22;59391;52.504;13.438;2023-10-13T13:42:11;22.90;64.90
71563;DHT22;59391;52.504;13.438;2023-10-13T13:44:46;22.90;64.90
71563;DHT22;59391;52.504;13.438;2023-10-13T13:47:15;23.00;64.40
71563;DHT22;59391;52.504;13.438;2023-10-13T13:49:42;23.10;64.10
71563;DHT22;59391;52.504;13.438;2023-10-13T13:52:18;23.10;64.00
71563;DHT22;59391;52.504;13.438;2023-10-13T13:54:47;23.10;64.20
71563;DHT22;59391;52.504;13.438;2023-10-13T13:57:13;23.20;63.70
71563;DHT22;59391;52.504;13.438;2023-10-13T13:59:39;23.20;63.30
71563;DHT22;59391;52.504;13.438;2023-10-13T14:02:09;23.30;63.20
71563;DHT22;59391;52.504;13.438;2023-10-13T14:04:48;23.30;63.10
71563;DHT22;59391;52.504;13.438;2023-10-13T14:07:17;23.40;62.60
71563;DHT22;59391;52.504;13.438;2023-10-13T14:09:46;23.50;62.40
71563;DHT22;59391;52.504;13.438;2023-10-13T14:12:17;23.60;62.10
71563;DHT22;59391;52.504;13.438;2023-10-13T14:15:06;23.70;61.90
71563;DHT22;59391;52.504;13.438;2023-10-13T14:17:46;23.80;60.50
71563;DHT22;59391;52.504;13.438;2023-10-13T14:20:14;23.80;60.60
71563;DHT22;59391;52.504;13.438;2023-10-13T14:22:44;23.90;60.00
71563;DHT22;59391;52.504;13.438;2023-10-13T14:25:13;24.00;60.00
71563;DHT22;59391;52.504;13.438;2023-10-13T14:27:42;24.00;60.20
71563;DHT22;59391;52.504;13.438;2023-10-13T14:30:08;24.00;59.80
71563;DHT22;59391;52.504;13.438;2023-10-13T14:32:34;24.10;59.40
71563;DHT22;59391;52.504;13.438;2023-10-13T14:35:06;24.10;59.10
71563;DHT22;59391;52.504;13.438;2023-10-13T14:37:41;24.10;59.00
71563;DHT22;59391;52.504;13.438;2023-10-13T14:40:07;24.10;58.90
71563;DHT22;59391;52.504;13.438;2023-10-13T14:42:38;24.20;58.70
71563;DHT22;59391;52.504;13.438;2023-10-13T14:45:06;24.20;58.30
71563;DHT22;59391;52.504;13.438;2023-10-13T14:47:42;24.30;57.80
71563;DHT22;59391;52.504;13.438;2023-10-13T14:50:11;24.30;57.10
71563;DHT22;59391;52.504;13.438;2023-10-13T14:52:47;24.40;57.00
71563;DHT22;59391;52.504;13.438;2023-10-13T14:55:14;24.40;57.00
71563;DHT22;59391;52.504;13.438;2023-10-13T14:57:50;24.30;57.10
71563;DHT22;59391;52.504;13.438;2023-10-13T15:00:16;24.30;57.00
71563;DHT22;59391;52.504;13.438;2023-10-13T15:02:53;24.30;57.20
71563;DHT22;59391;52.504;13.438;2023-10-13T15:05:20;24.30;57.30
71563;DHT22;59391;52.504;13.438;2023-10-13T15:07:45;24.30;57.40
71563;DHT22;59391;52.504;13.438;2023-10-13T15:10:14;24.30;57.00
71563;DHT22;59391;52.504;13.438;2023-10-13T15:12:43;24.20;57.20
71563;DHT22;59391;52.504;13.438;2023-10-13T15:15:10;24.20;57.40
71563;DHT22;59391;52.504;13.438;2023-10-13T15:17:41;24.20;57.30
71563;DHT22;59391;52.504;13.438;2023-10-13T15:20:07;24.20;57.10
71563;DHT22;59391;52.504;13.438;2023-10-13T15:22:36;24.20;57.10
71563;DHT22;59391;52.504;13.438;2023-10-13T15:25:05;24.10;57.00
71563;DHT22;59391;52.504;13.438;2023-10-13T15:27:43;24.10;57.30
71563;DHT22;59391;52.504;13.438;2023-10-13T15:30:15;24.10;57.20
71563;DHT22;59391;52.504;13.438;2023-10-13T15:32:51;24.10;57.40
71563;DHT22;59391;52.504;13.438;2023-10-13T15:35:19;24.10;57.50
71563;DHT22;59391;52.504;13.438;2023-10-13T15:37:45;24.00;57.40
71563;DHT22;59391;52.504;13.438;2023-10-13T15:40:13;24.00;57.40
71563;DHT22;59391;52.504;13.438;2023-10-13T15:42:42;24.00;57.30
71563;DHT22;59391;52.504;13.438;2023-10-13T15:45:10;24.00;57.30
71563;DHT22;59391;52.504;13.438;2023-10-13T15:47:46;24.00;57.40
71563;DHT22;59391;52.504;13.438;2023-10-13T15:50:14;23.90;57.50
71563;DHT22;59391;52.504;13.438;2023-10-13T15:52:42;23.90;57.40
71563;DHT22;59391;52.504;13.438;2023-10-13T15:55:17;23.90;57.40
71563;DHT22;59391;52.504;13.438;2023-10-13T15:57:43;23.80;57.60
71563;DHT22;59391;52.504;13.438;2023-10-13T16:00:10;23.80;57.70
71563;DHT22;59391;52.504;13.438;2023-10-13T16:02:55;23.80;58.00
71563;DHT22;59391;52.504;13.438;2023-10-13T16:05:31;23.70;58.10
71563;DHT22;59391;52.504;13.438;2023-10-13T16:08:00;23.70;57.90
71563;DHT22;59391;52.504;13.438;2023-10-13T16:10:26;23.70;57.90